createdAt,value
2022-12-26T00:02:01.435Z,8.52
2022-12-26T00:04:51.020Z,8.13
2022-12-26T00:07:14.167Z,8.93
2022-12-26T00:09:40.497Z,9.30
2022-12-26T00:12:06.883Z,9.95
2022-12-26T00:14:33.205Z,8.95
2022-12-26T00:16:59.512Z,7.82
2022-12-26T00:19:26.150Z,9.63
2022-12-26T00:21:52.550Z,9.93
2022-12-26T00:24:18.868Z,10.50
2022-12-26T00:26:45.143Z,10.30
2022-12-26T00:29:11.467Z,9.40
2022-12-26T00:31:37.857Z,10.45
2022-12-26T00:34:04.254Z,10.75
2022-12-26T00:36:32.651Z,11.85
2022-12-26T00:39:00.763Z,10.38
2022-12-26T00:41:27.455Z,12.43
2022-12-26T00:43:53.828Z,11.60
2022-12-26T00:46:20.383Z,12.05
2022-12-26T00:48:46.996Z,11.80
2022-12-26T00:51:13.802Z,10.23
2022-12-26T00:53:40.480Z,10.15
2022-12-26T00:56:07.485Z,10.38
2022-12-26T00:58:33.926Z,10.90
2022-12-26T01:01:17.103Z,10.75
2022-12-26T01:03:44.904Z,9.98
2022-12-26T01:06:11.714Z,11.38
2022-12-26T01:08:38.435Z,11.23
2022-12-26T01:11:13.165Z,10.27
2022-12-26T01:13:39.726Z,10.23
2022-12-26T01:16:06.488Z,10.63
2022-12-26T01:18:33.403Z,8.27
2022-12-26T01:21:02.008Z,11.15
2022-12-26T01:23:29.115Z,11.23
2022-12-26T01:26:18.299Z,12.68
2022-12-26T01:28:41.797Z,10.65
2022-12-26T01:31:10.586Z,11.45
2022-12-26T01:33:37.024Z,10.43
2022-12-26T01:36:03.464Z,9.00
2022-12-26T01:38:29.914Z,6.60
2022-12-26T01:41:14.869Z,9.05
2022-12-26T01:43:47.002Z,10.13
2022-12-26T01:46:14.290Z,9.88
2022-12-26T01:48:40.742Z,10.23
2022-12-26T01:51:07.587Z,8.80
2022-12-26T01:53:39.344Z,10.57
2022-12-26T01:56:11.738Z,11.10
2022-12-26T01:58:44.366Z,10.63
2022-12-26T02:01:11.308Z,9.88
2022-12-26T02:03:58.445Z,11.10
2022-12-26T02:06:24.842Z,10.25
2022-12-26T02:08:51.441Z,10.07
2022-12-26T02:11:39.036Z,9.35
2022-12-26T02:14:07.442Z,10.70
2022-12-26T02:16:36.177Z,7.82
2022-12-26T02:19:04.700Z,9.55
2022-12-26T02:22:21.429Z,10.98
2022-12-26T02:25:15.632Z,10.50
2022-12-26T02:27:56.889Z,11.60
2022-12-26T02:33:27.978Z,9.52
2022-12-26T02:36:16.130Z,11.50
2022-12-26T02:39:01.737Z,11.95
2022-12-26T02:41:46.406Z,12.20
2022-12-26T02:44:51.800Z,11.32
2022-12-26T02:47:32.044Z,11.07
2022-12-26T02:50:40.602Z,10.40
2022-12-26T02:53:37.560Z,11.50
2022-12-26T02:56:32.872Z,11.85
2022-12-26T02:59:55.109Z,12.20
2022-12-26T03:02:47.931Z,13.65
2022-12-26T03:05:40.570Z,13.18
2022-12-26T03:08:31.348Z,9.90
2022-12-26T03:11:17.630Z,12.82
2022-12-26T03:13:46.082Z,11.63
2022-12-26T03:16:32.450Z,10.05
2022-12-26T03:19:05.443Z,12.55
2022-12-26T03:21:40.596Z,10.98
2022-12-26T03:24:10.864Z,12.95
2022-12-26T03:26:47.325Z,13.43
2022-12-26T03:29:37.766Z,13.07
2022-12-26T03:32:07.962Z,12.63
2022-12-26T03:34:37.309Z,14.05
2022-12-26T03:37:48.392Z,13.38
2022-12-26T03:40:56.267Z,14.82
2022-12-26T03:44:13.385Z,14.38
2022-12-26T03:47:29.459Z,12.52
2022-12-26T03:50:21.807Z,12.80
2022-12-26T03:53:46.653Z,13.52
2022-12-26T03:56:46.828Z,14.45
2022-12-26T03:59:43.688Z,14.30
2022-12-26T04:02:31.289Z,14.32
2022-12-26T04:05:19.948Z,14.00
2022-12-26T04:08:14.903Z,14.63
2022-12-26T04:11:09.328Z,13.10
2022-12-26T04:14:14.381Z,11.30
2022-12-26T04:17:04.674Z,14.30
2022-12-26T04:19:49.069Z,11.73
2022-12-26T04:23:01.521Z,13.68
2022-12-26T04:25:53.786Z,14.38
2022-12-26T04:28:41.616Z,9.48
2022-12-26T04:31:40.156Z,11.45
2022-12-26T04:34:31.583Z,9.68
2022-12-26T04:37:20.859Z,7.22
2022-12-26T04:40:09.933Z,8.98
2022-12-26T04:42:57.057Z,8.68
2022-12-26T04:45:23.780Z,9.60
2022-12-26T04:48:09.510Z,10.02
2022-12-26T04:50:35.951Z,8.27
2022-12-26T04:53:02.371Z,7.78
2022-12-26T04:55:31.003Z,8.70
2022-12-26T04:57:57.864Z,6.50
2022-12-26T05:00:25.632Z,7.18
2022-12-26T05:03:17.911Z,6.47
2022-12-26T05:05:53.912Z,7.35
2022-12-26T05:08:47.681Z,6.88
2022-12-26T05:11:13.989Z,6.40
2022-12-26T05:13:40.311Z,6.32
2022-12-26T05:16:25.778Z,6.32
2022-12-26T05:19:10.510Z,5.45
2022-12-26T05:21:56.419Z,5.10
2022-12-26T05:24:42.203Z,3.90
2022-12-26T05:27:32.370Z,4.30
2022-12-26T05:29:58.708Z,5.38
2022-12-26T05:32:43.657Z,5.07
2022-12-26T05:35:10.439Z,4.93
2022-12-26T05:37:36.907Z,4.68
2022-12-26T05:40:03.754Z,4.72
2022-12-26T05:42:30.052Z,4.55
2022-12-26T05:44:56.420Z,5.70
2022-12-26T05:47:22.756Z,4.00
2022-12-26T05:49:49.069Z,4.40
2022-12-26T05:52:15.467Z,3.53
2022-12-26T05:54:41.793Z,4.65
2022-12-26T05:57:08.123Z,3.38
2022-12-26T05:59:34.472Z,4.50
2022-12-26T06:02:00.970Z,4.25
2022-12-26T06:04:27.466Z,4.05
2022-12-26T06:06:56.258Z,3.83
2022-12-26T06:09:23.638Z,3.70
2022-12-26T06:11:49.985Z,4.18
2022-12-26T06:14:16.764Z,3.25
2022-12-26T06:16:43.159Z,3.75
2022-12-26T06:19:09.576Z,3.95
2022-12-26T06:21:36.357Z,3.58
2022-12-26T06:24:02.730Z,3.72
2022-12-26T06:26:29.061Z,3.50
2022-12-26T06:28:55.349Z,3.60
2022-12-26T06:31:23.971Z,4.20
2022-12-26T06:33:55.199Z,4.30
2022-12-26T06:36:23.861Z,3.30
2022-12-26T06:38:51.593Z,3.88
2022-12-26T06:41:19.767Z,3.08
2022-12-26T06:43:47.087Z,3.47
2022-12-26T06:46:18.704Z,3.42
2022-12-26T06:48:45.157Z,3.50
2022-12-26T06:51:15.438Z,3.35
2022-12-26T06:53:42.495Z,3.00
2022-12-26T06:56:11.544Z,3.72
2022-12-26T06:58:38.267Z,3.97
2022-12-26T07:01:12.830Z,3.33
2022-12-26T07:03:46.584Z,3.47
2022-12-26T07:06:26.985Z,1.65
2022-12-26T07:08:57.304Z,2.92
2022-12-26T07:11:27.769Z,3.40
2022-12-26T07:13:55.036Z,3.15
2022-12-26T07:16:22.448Z,3.10
2022-12-26T07:18:49.107Z,4.00
2022-12-26T07:21:15.927Z,3.80
2022-12-26T07:23:42.907Z,3.65
2022-12-26T07:26:09.367Z,3.03
2022-12-26T07:28:35.679Z,2.65
2022-12-26T07:31:02.594Z,2.90
2022-12-26T07:33:29.785Z,3.83
2022-12-26T07:36:03.832Z,2.88
2022-12-26T07:38:30.195Z,3.47
2022-12-26T07:40:57.379Z,2.58
2022-12-26T07:43:24.620Z,2.50
2022-12-26T07:45:51.197Z,3.00
2022-12-26T07:48:17.738Z,2.67
2022-12-26T07:50:47.054Z,2.70
2022-12-26T07:53:14.495Z,3.47
2022-12-26T07:55:40.864Z,2.67
2022-12-26T07:58:07.185Z,3.30
2022-12-26T08:00:33.726Z,3.60
2022-12-26T08:03:06.951Z,2.67
2022-12-26T08:05:34.276Z,2.70
2022-12-26T08:08:00.650Z,2.50
2022-12-26T08:10:27.095Z,1.92
2022-12-26T08:12:53.444Z,2.78
2022-12-26T08:15:19.782Z,3.38
2022-12-26T08:17:46.111Z,1.98
2022-12-26T08:20:12.453Z,2.55
2022-12-26T08:22:38.742Z,2.92
2022-12-26T08:25:05.874Z,1.35
2022-12-26T08:27:32.234Z,2.17
2022-12-26T08:29:58.567Z,2.38
2022-12-26T08:32:24.867Z,1.63
2022-12-26T08:34:51.329Z,2.60
2022-12-26T08:37:17.943Z,2.13
2022-12-26T08:39:44.686Z,2.67
2022-12-26T08:42:11.008Z,2.63
2022-12-26T08:44:37.309Z,1.80
2022-12-26T08:47:03.708Z,2.25
2022-12-26T08:49:30.043Z,1.83
2022-12-26T08:52:02.344Z,2.45
2022-12-26T08:54:28.928Z,1.60
2022-12-26T08:56:55.302Z,1.95
2022-12-26T08:59:21.879Z,1.80
2022-12-26T09:01:48.574Z,1.15
2022-12-26T09:04:15.181Z,1.80
2022-12-26T09:06:41.720Z,1.73
2022-12-26T09:09:11.218Z,1.52
2022-12-26T09:11:38.662Z,1.50
2022-12-26T09:14:05.415Z,1.45
2022-12-26T09:16:49.316Z,1.58
2022-12-26T09:19:17.546Z,1.63
2022-12-26T09:21:44.301Z,1.48
2022-12-26T09:24:13.508Z,1.40
2022-12-26T09:26:40.305Z,1.58
2022-12-26T09:29:07.114Z,1.75
2022-12-26T09:31:35.114Z,1.10
2022-12-26T09:34:03.931Z,1.33
2022-12-26T09:36:33.288Z,1.40
2022-12-26T09:39:00.314Z,2.20
2022-12-26T09:41:51.771Z,1.60
2022-12-26T09:44:25.614Z,1.65
2022-12-26T09:46:57.615Z,1.08
2022-12-26T09:49:30.809Z,1.05
2022-12-26T09:52:01.814Z,1.33
2022-12-26T09:54:35.152Z,0.93
2022-12-26T09:57:12.936Z,1.25
2022-12-26T09:59:56.483Z,1.25
2022-12-26T10:02:25.203Z,0.95
2022-12-26T10:04:53.057Z,0.90
2022-12-26T10:07:28.171Z,0.98
2022-12-26T10:09:57.464Z,0.80
2022-12-26T10:12:42.235Z,1.27
2022-12-26T10:15:49.243Z,0.73
2022-12-26T10:18:34.003Z,0.70
2022-12-26T10:21:59.388Z,2.05
2022-12-26T10:24:28.890Z,0.90
2022-12-26T10:27:07.250Z,1.38
2022-12-26T10:29:45.340Z,1.67
2022-12-26T10:32:21.669Z,1.13
2022-12-26T10:34:51.808Z,1.45
2022-12-26T10:37:26.106Z,1.20
2022-12-26T10:40:07.630Z,1.30
2022-12-26T10:42:38.082Z,1.80
2022-12-26T10:45:22.423Z,1.60
2022-12-26T10:47:51.273Z,2.38
2022-12-26T10:50:26.997Z,1.60
2022-12-26T10:52:54.243Z,1.33
2022-12-26T10:55:31.731Z,1.65
2022-12-26T10:58:16.495Z,1.85
2022-12-26T11:00:42.822Z,3.28
2022-12-26T11:03:12.442Z,3.83
2022-12-26T11:08:49.892Z,1.80
2022-12-26T11:11:25.051Z,1.77
2022-12-26T11:14:02.114Z,1.92
2022-12-26T11:16:33.605Z,1.33
2022-12-26T11:21:28.868Z,1.20
2022-12-26T11:24:07.061Z,0.77
2022-12-26T11:26:33.530Z,0.80
2022-12-26T11:29:16.598Z,0.80
2022-12-26T11:32:03.519Z,0.95
2022-12-26T11:34:37.252Z,1.10
2022-12-26T11:37:06.572Z,0.40
2022-12-26T11:39:37.056Z,1.15
2022-12-26T11:42:11.828Z,0.90
2022-12-26T11:44:44.855Z,1.30
2022-12-26T11:47:17.275Z,1.00
2022-12-26T11:49:51.901Z,0.20
2022-12-26T11:52:45.649Z,1.75
2022-12-26T11:55:24.688Z,1.42
2022-12-26T11:58:06.488Z,0.50
2022-12-26T12:00:36.992Z,0.70
2022-12-26T12:03:14.387Z,0.60
2022-12-26T12:06:02.973Z,0.60
2022-12-26T12:09:06.871Z,0.80
2022-12-26T12:12:16.801Z,0.93
2022-12-26T12:15:18.018Z,0.30
2022-12-26T12:18:18.287Z,0.57
2022-12-26T12:21:07.763Z,1.05
2022-12-26T12:23:55.952Z,0.47
2022-12-26T12:26:38.433Z,0.90
2022-12-26T12:29:28.496Z,0.38
2022-12-26T12:31:54.896Z,0.40
2022-12-26T12:34:31.223Z,0.75
2022-12-26T12:36:57.515Z,0.57
2022-12-26T12:39:44.826Z,0.47
2022-12-26T12:42:14.251Z,0.25
2022-12-26T12:45:13.726Z,0.95
2022-12-26T12:48:11.631Z,0.30
2022-12-26T12:50:57.959Z,0.73
2022-12-26T12:53:49.983Z,0.45
2022-12-26T12:56:25.396Z,0.43
2022-12-26T12:59:25.649Z,0.20
2022-12-26T13:02:01.575Z,0.57
2022-12-26T13:04:40.840Z,0.65
2022-12-26T13:07:32.653Z,0.52
2022-12-26T13:10:02.877Z,0.52
2022-12-26T13:12:36.032Z,0.30
2022-12-26T13:15:08.239Z,0.68
2022-12-26T13:17:47.908Z,0.32
2022-12-26T13:20:37.307Z,0.60
2022-12-26T13:23:36.075Z,0.40
2022-12-26T13:26:10.850Z,0.55
2022-12-26T13:28:50.268Z,0.65
2022-12-26T13:31:17.238Z,0.50
2022-12-26T13:33:44.294Z,0.20
2022-12-26T13:36:30.687Z,0.30
2022-12-26T13:39:01.298Z,0.93
2022-12-26T13:41:47.890Z,0.70
2022-12-26T13:44:20.105Z,0.35
2022-12-26T13:46:46.346Z,0.90
2022-12-26T13:49:36.148Z,0.60
2022-12-26T13:52:11.665Z,1.05
2022-12-26T13:55:06.732Z,0.40
2022-12-26T13:57:42.568Z,0.88
2022-12-26T14:00:21.744Z,0.85
2022-12-26T14:03:19.126Z,1.13
2022-12-26T14:06:24.351Z,0.82
2022-12-26T14:09:10.317Z,0.70
2022-12-26T14:11:50.836Z,0.82
2022-12-26T14:14:54.899Z,0.25
2022-12-26T14:17:29.928Z,1.55
2022-12-26T14:20:14.606Z,0.82
2022-12-26T14:22:55.627Z,0.38
2022-12-26T14:25:29.741Z,0.20
2022-12-26T14:28:05.063Z,0.30
2022-12-26T14:30:50.413Z,0.60
2022-12-26T14:33:35.410Z,0.43
2022-12-26T14:36:19.039Z,0.47
2022-12-26T14:39:11.236Z,0.50
2022-12-26T14:42:37.627Z,0.63
2022-12-26T14:45:14.152Z,0.50
2022-12-26T14:47:48.772Z,0.40
2022-12-26T14:50:36.869Z,0.20
2022-12-26T14:53:27.026Z,0.60
2022-12-26T14:55:53.529Z,0.38
2022-12-26T14:58:31.893Z,0.93
2022-12-26T15:01:12.858Z,0.50
2022-12-26T15:06:42.501Z,0.63
2022-12-26T15:09:43.255Z,0.40
2022-12-26T15:12:31.068Z,0.43
2022-12-26T15:15:39.187Z,0.47
2022-12-26T15:18:30.555Z,0.60
2022-12-26T15:21:12.097Z,0.65
2022-12-26T15:24:52.493Z,0.40
2022-12-26T15:27:30.911Z,0.35
2022-12-26T15:30:25.228Z,0.77
2022-12-26T15:33:06.121Z,0.40
2022-12-26T15:35:50.343Z,0.40
2022-12-26T15:38:25.792Z,0.60
2022-12-26T15:41:01.843Z,0.22
2022-12-26T15:43:53.254Z,0.40
2022-12-26T15:46:29.739Z,0.30
2022-12-26T15:49:27.590Z,0.40
2022-12-26T15:52:25.170Z,0.65
2022-12-26T15:55:27.195Z,0.30
2022-12-26T15:58:05.679Z,1.45
2022-12-26T16:00:34.048Z,1.60
2022-12-26T16:03:14.240Z,1.10
2022-12-26T16:06:05.113Z,1.40
2022-12-26T16:08:45.484Z,0.95
2022-12-26T16:11:17.720Z,0.63
2022-12-26T16:14:28.468Z,2.08
2022-12-26T16:16:55.125Z,1.58
2022-12-26T16:19:26.590Z,1.27
2022-12-26T16:22:25.455Z,0.90
2022-12-26T16:24:53.534Z,0.40
2022-12-26T16:27:23.316Z,0.82
2022-12-26T16:29:56.900Z,1.15
2022-12-26T16:32:37.862Z,1.15
2022-12-26T16:35:06.638Z,1.55
2022-12-26T16:37:33.235Z,0.93
2022-12-26T16:40:08.370Z,0.90
2022-12-26T16:42:34.694Z,0.90
2022-12-26T16:45:01.628Z,0.90
2022-12-26T16:47:31.097Z,0.77
2022-12-26T16:49:59.244Z,0.52
2022-12-26T16:52:45.620Z,0.85
2022-12-26T16:55:30.898Z,0.93
2022-12-26T16:57:59.812Z,1.20
2022-12-26T17:00:27.180Z,1.35
2022-12-26T17:03:00.610Z,1.33
2022-12-26T17:05:31.823Z,1.40
2022-12-26T17:10:30.608Z,0.95
2022-12-26T17:13:00.465Z,3.30
2022-12-26T17:15:33.038Z,1.25
2022-12-26T17:18:20.103Z,0.80
2022-12-26T17:20:46.402Z,0.80
2022-12-26T17:23:35.099Z,0.68
2022-12-26T17:26:16.712Z,0.93
2022-12-26T17:28:43.117Z,0.85
2022-12-26T17:31:24.471Z,0.63
2022-12-26T17:33:54.269Z,0.75
2022-12-26T17:37:08.192Z,0.95
2022-12-26T17:39:23.803Z,0.80
2022-12-26T17:42:01.856Z,0.80
2022-12-26T17:44:40.217Z,0.70
2022-12-26T17:47:17.769Z,0.77
2022-12-26T17:49:44.193Z,0.70
2022-12-26T17:52:12.765Z,0.93
2022-12-26T17:54:39.669Z,0.98
2022-12-26T17:57:06.011Z,0.90
2022-12-26T17:59:32.369Z,0.90
2022-12-26T18:01:58.769Z,0.63
2022-12-26T18:04:25.122Z,1.08
2022-12-26T18:06:51.601Z,0.73
2022-12-26T18:09:27.187Z,0.93
2022-12-26T18:11:54.301Z,1.08
2022-12-26T18:14:21.033Z,0.98
2022-12-26T18:16:50.262Z,2.67
2022-12-26T18:19:19.028Z,2.90
2022-12-26T18:21:46.042Z,2.67
2022-12-26T18:24:13.205Z,3.28
2022-12-26T18:26:39.999Z,3.45
2022-12-26T18:29:06.943Z,2.58
2022-12-26T18:31:33.277Z,2.15
2022-12-26T18:33:59.615Z,1.50
2022-12-26T18:36:35.823Z,1.35
2022-12-26T18:39:03.257Z,1.67
2022-12-26T18:41:29.657Z,1.77
2022-12-26T18:43:57.847Z,1.23
2022-12-26T18:46:26.381Z,1.75
2022-12-26T18:48:54.171Z,1.10
2022-12-26T18:51:21.337Z,0.90
2022-12-26T18:53:48.298Z,1.30
2022-12-26T18:56:20.857Z,1.00
2022-12-26T18:58:57.170Z,0.80
2022-12-26T19:01:24.884Z,0.93
2022-12-26T19:03:53.538Z,1.15
2022-12-26T19:06:27.390Z,1.08
2022-12-26T19:08:54.062Z,1.30
2022-12-26T19:11:20.490Z,1.30
2022-12-26T19:13:47.081Z,0.52
2022-12-26T19:16:13.553Z,1.25
2022-12-26T19:18:40.166Z,1.00
2022-12-26T19:21:14.698Z,1.20
2022-12-26T19:23:42.223Z,1.23
2022-12-26T19:26:13.995Z,0.70
2022-12-26T19:28:41.200Z,1.00
2022-12-26T19:31:13.334Z,2.42
2022-12-26T19:33:39.901Z,1.38
2022-12-26T19:36:08.375Z,1.13
2022-12-26T19:38:35.257Z,0.65
2022-12-26T19:41:06.818Z,0.88
2022-12-26T19:43:33.559Z,0.70
2022-12-26T19:46:01.817Z,0.80
2022-12-26T19:48:30.127Z,1.30
2022-12-26T19:51:01.047Z,0.60
2022-12-26T19:53:27.455Z,0.88
2022-12-26T19:55:53.762Z,1.23
2022-12-26T19:58:20.173Z,0.65
2022-12-26T20:00:46.615Z,0.40
2022-12-26T20:03:12.987Z,0.70
2022-12-26T20:05:41.987Z,1.38
2022-12-26T20:08:12.609Z,1.23
2022-12-26T20:10:39.123Z,0.82
2022-12-26T20:13:05.486Z,0.60
2022-12-26T20:15:32.861Z,0.95
2022-12-26T20:17:59.252Z,0.90
2022-12-26T20:20:25.623Z,1.38
2022-12-26T20:22:53.383Z,0.65
2022-12-26T20:25:19.840Z,1.40
2022-12-26T20:27:46.192Z,1.20
2022-12-26T20:30:12.611Z,1.40
2022-12-26T20:32:43.783Z,1.30
2022-12-26T20:35:10.115Z,0.80
2022-12-26T20:37:36.457Z,0.68
2022-12-26T20:40:02.983Z,1.27
2022-12-26T20:42:29.321Z,1.00
2022-12-26T20:44:55.648Z,1.27
2022-12-26T20:47:21.983Z,1.63
2022-12-26T20:49:48.362Z,1.02
2022-12-26T20:52:16.390Z,0.93
2022-12-26T20:54:43.756Z,0.73
2022-12-26T20:57:10.130Z,0.85
2022-12-26T20:59:37.165Z,0.52
2022-12-26T21:02:03.672Z,0.85
2022-12-26T21:04:30.142Z,1.17
2022-12-26T21:06:56.460Z,1.20
2022-12-26T21:09:22.818Z,1.50
2022-12-26T21:11:49.453Z,0.60
2022-12-26T21:14:18.457Z,1.30
2022-12-26T21:16:57.693Z,1.20
2022-12-26T21:19:26.779Z,0.70
2022-12-26T21:21:54.549Z,1.08
2022-12-26T21:24:27.340Z,1.35
2022-12-26T21:26:54.508Z,0.70
2022-12-26T21:29:27.484Z,1.50
2022-12-26T21:31:55.118Z,1.27
2022-12-26T21:34:23.318Z,1.40
2022-12-26T21:37:10.439Z,2.10
2022-12-26T21:39:37.924Z,1.20
2022-12-26T21:42:06.064Z,0.75
2022-12-26T21:44:32.735Z,1.05
2022-12-26T21:46:59.412Z,1.10
2022-12-26T21:49:25.924Z,1.20
2022-12-26T21:51:52.249Z,1.17
2022-12-26T21:54:37.222Z,1.20
2022-12-26T21:57:03.902Z,1.40
2022-12-26T21:59:50.522Z,1.35
2022-12-26T22:02:35.722Z,1.30
2022-12-26T22:05:02.276Z,1.20
2022-12-26T22:07:29.064Z,1.15
2022-12-26T22:09:55.468Z,1.77
2022-12-26T22:12:40.490Z,1.25
2022-12-26T22:15:27.528Z,1.38
2022-12-26T22:17:53.921Z,1.60
2022-12-26T22:20:20.457Z,1.38
2022-12-26T22:22:46.794Z,2.10
2022-12-26T22:25:13.125Z,1.45
2022-12-26T22:27:39.415Z,1.65
2022-12-26T22:30:06.135Z,2.08
2022-12-26T22:32:32.541Z,1.10
2022-12-26T22:34:58.859Z,1.52
2022-12-26T22:37:25.203Z,1.10
2022-12-26T22:39:51.513Z,1.40
2022-12-26T22:42:17.843Z,1.38
2022-12-26T22:44:44.169Z,0.55
2022-12-26T22:47:10.559Z,1.83
2022-12-26T22:49:37.218Z,1.38
2022-12-26T22:52:03.693Z,1.27
2022-12-26T22:54:30.033Z,1.23
2022-12-26T22:56:56.452Z,1.23
2022-12-26T23:00:05.970Z,1.08
2022-12-26T23:02:09.435Z,1.10
2022-12-26T23:04:36.307Z,1.40
2022-12-26T23:07:02.820Z,1.60
2022-12-26T23:09:29.383Z,1.20
2022-12-26T23:12:14.336Z,1.10
2022-12-26T23:14:40.809Z,1.35
2022-12-26T23:17:12.598Z,1.35
2022-12-26T23:20:09.872Z,1.13
2022-12-26T23:22:36.470Z,1.50
2022-12-26T23:25:02.795Z,1.60
2022-12-26T23:27:47.956Z,0.90
2022-12-26T23:30:19.885Z,2.08
2022-12-26T23:32:52.372Z,1.95
2022-12-26T23:35:20.163Z,2.05
2022-12-26T23:37:46.599Z,1.55
2022-12-26T23:40:14.173Z,1.80
2022-12-26T23:42:41.018Z,1.92
2022-12-26T23:45:09.476Z,1.13
2022-12-26T23:47:37.376Z,1.20
2022-12-26T23:50:04.778Z,1.27
2022-12-26T23:52:31.292Z,1.80
2022-12-26T23:54:58.264Z,1.75
2022-12-26T23:57:25.143Z,1.80
2022-12-26T23:59:51.568Z,1.38
